createdAt,value
2018-09-19T00:01:25.821Z,25.50
2018-09-19T00:04:01.508Z,25.50
2018-09-19T00:06:33.540Z,25.50
2018-09-19T00:09:06.306Z,25.30
2018-09-19T00:11:35.372Z,25.20
2018-09-19T00:14:04.772Z,25.20
2018-09-19T00:16:38.061Z,25.20
2018-09-19T00:19:09.098Z,25.20
2018-09-19T00:21:37.950Z,25.10
2018-09-19T00:24:07.834Z,25.10
2018-09-19T00:26:38.453Z,25.00
2018-09-19T00:32:52.345Z,25.00
2018-09-19T00:37:18.513Z,25.00
2018-09-19T00:42:23.604Z,25.00
2018-09-19T00:44:55.858Z,24.90
2018-09-19T01:05:09.898Z,24.50
2018-09-19T01:07:39.392Z,24.70
2018-09-19T01:10:08.875Z,24.70
2018-09-19T01:12:38.400Z,24.80
2018-09-19T01:15:08.955Z,24.80
2018-09-19T01:17:38.340Z,24.80
2018-09-19T01:20:07.697Z,24.80
2018-09-19T01:22:37.898Z,24.80
2018-09-19T01:36:57.878Z,24.70
2018-09-19T01:39:27.773Z,24.20
2018-09-19T01:41:57.622Z,24.50
2018-09-19T01:44:27.004Z,24.60
2018-09-19T01:46:56.640Z,24.60
2018-09-19T01:49:26.185Z,24.70
2018-09-19T01:51:55.509Z,24.70
2018-09-19T01:54:27.286Z,24.70
2018-09-19T01:56:57.851Z,24.60
2018-09-19T01:59:31.795Z,24.60
2018-09-19T02:02:01.480Z,24.50
2018-09-19T02:04:32.972Z,24.50
2018-09-19T02:07:02.725Z,24.50
2018-09-19T02:09:32.813Z,24.50
2018-09-19T02:12:02.104Z,24.50
2018-09-19T02:17:07.448Z,24.30
2018-09-19T02:20:19.415Z,24.20
2018-09-19T02:22:54.906Z,24.20
2018-09-19T02:31:14.164Z,24.00
2018-09-19T02:33:53.074Z,24.10
2018-09-19T02:39:07.570Z,24.10
2018-09-19T02:41:39.249Z,24.10
2018-09-19T02:46:44.636Z,24.00
2018-09-19T02:49:18.036Z,24.00
2018-09-19T02:51:55.652Z,24.00
2018-09-19T02:54:31.571Z,23.90
2018-09-19T02:57:06.157Z,23.80
2018-09-19T03:02:19.339Z,23.70
2018-09-19T03:07:38.988Z,23.50
2018-09-19T03:13:09.886Z,23.50
2018-09-19T03:15:46.394Z,23.40
2018-09-19T03:18:20.682Z,23.30
2018-09-19T03:20:53.952Z,23.30
2018-09-19T03:26:01.269Z,23.30
2018-09-19T03:28:35.323Z,23.20
2018-09-19T03:31:06.314Z,23.20
2018-09-19T03:33:40.442Z,23.10
2018-09-19T03:36:16.023Z,23.10
2018-09-19T03:38:55.118Z,22.90
2018-09-19T03:41:29.222Z,22.80
2018-09-19T03:44:00.627Z,22.80
2018-09-19T03:49:00.265Z,22.90
2018-09-19T03:51:30.388Z,22.90
2018-09-19T03:53:59.940Z,22.90
2018-09-19T03:56:28.499Z,22.90
2018-09-19T03:58:57.716Z,22.90
2018-09-19T04:01:26.824Z,22.90
2018-09-19T04:03:56.143Z,22.80
2018-09-19T04:08:54.382Z,22.60
2018-09-19T04:11:27.265Z,22.60
2018-09-19T04:13:57.077Z,22.50
2018-09-19T04:16:26.715Z,22.50
2018-09-19T04:18:56.604Z,22.50
2018-09-19T04:21:26.329Z,22.60
2018-09-19T04:36:25.082Z,22.70
2018-09-19T04:38:57.660Z,23.00
2018-09-19T04:41:29.218Z,22.80
2018-09-19T04:44:00.871Z,22.60
2018-09-19T04:46:30.621Z,22.60
2018-09-19T04:49:02.314Z,22.50
2018-09-19T04:51:34.510Z,22.40
2018-09-19T04:54:03.179Z,22.30
2018-09-19T04:56:32.089Z,22.30
2018-09-19T04:59:01.964Z,22.30
2018-09-19T05:01:31.907Z,22.20
2018-09-19T05:04:06.153Z,22.20
2018-09-19T05:06:34.964Z,22.20
2018-09-19T05:09:07.642Z,22.10
2018-09-19T05:11:37.163Z,22.10
2018-09-19T05:14:05.767Z,22.10
2018-09-19T05:16:34.372Z,22.10
2018-09-19T05:19:02.954Z,22.10
2018-09-19T05:21:31.545Z,22.10
2018-09-19T05:25:46.561Z,22.20
2018-09-19T05:28:17.252Z,22.30
2018-09-19T05:30:56.815Z,22.20
2018-09-19T05:35:53.663Z,22.10
2018-09-19T05:38:22.668Z,22.10
2018-09-19T05:43:19.943Z,22.00
2018-09-19T05:45:48.508Z,22.00
2018-09-19T05:48:17.117Z,21.90
2018-09-19T05:50:45.878Z,21.90
2018-09-19T05:53:14.470Z,21.90
2018-09-19T05:58:11.464Z,22.20
2018-09-19T06:00:40.059Z,22.20
2018-09-19T06:03:08.627Z,22.20
2018-09-19T06:05:37.254Z,22.20
2018-09-19T06:08:05.820Z,22.00
2018-09-19T06:10:34.393Z,22.00
2018-09-19T06:13:03.018Z,21.90
2018-09-19T06:15:31.574Z,22.00
2018-09-19T06:18:00.285Z,22.00
2018-09-19T06:20:29.960Z,22.10
2018-09-19T06:22:58.581Z,22.00
2018-09-19T06:25:49.379Z,22.00
2018-09-19T06:28:18.001Z,22.00
2018-09-19T06:33:15.039Z,21.90
2018-09-19T06:35:43.692Z,21.90
2018-09-19T06:38:12.322Z,22.00
2018-09-19T06:40:41.079Z,22.10
2018-09-19T06:43:09.503Z,22.20
2018-09-19T06:48:06.665Z,22.50
2018-09-19T06:50:35.205Z,22.70
2018-09-19T06:53:03.764Z,22.80
2018-09-19T06:55:33.048Z,22.80
2018-09-19T06:58:01.653Z,22.80
2018-09-19T07:00:30.359Z,22.90
2018-09-19T07:02:58.946Z,22.90
2018-09-19T07:07:55.891Z,23.00
2018-09-19T07:10:24.588Z,23.10
2018-09-19T07:12:53.145Z,23.10
2018-09-19T07:15:22.810Z,23.20
2018-09-19T07:20:19.680Z,23.30
2018-09-19T07:22:48.321Z,23.40
2018-09-19T07:25:49.180Z,23.50
2018-09-19T07:28:17.900Z,23.70
2018-09-19T07:30:46.535Z,23.70
2018-09-19T07:33:15.187Z,23.80
2018-09-19T07:35:43.721Z,23.80
2018-09-19T07:38:13.756Z,23.90
2018-09-19T07:40:42.476Z,24.10
2018-09-19T07:43:11.239Z,24.10
2018-09-19T07:45:39.723Z,24.10
2018-09-19T07:48:08.278Z,24.20
2018-09-19T07:50:37.220Z,24.20
2018-09-19T07:53:05.759Z,24.40
2018-09-19T07:55:35.273Z,24.50
2018-09-19T07:58:03.915Z,24.50
2018-09-19T08:00:32.525Z,24.50
2018-09-19T08:05:30.209Z,24.90
2018-09-19T08:08:00.860Z,24.90
2018-09-19T08:10:29.565Z,25.00
2018-09-19T08:12:58.165Z,25.10
2018-09-19T08:15:26.827Z,25.00
2018-09-19T08:17:55.440Z,25.00
2018-09-19T08:20:24.026Z,25.10
2018-09-19T08:22:52.688Z,25.30
2018-09-19T08:25:52.886Z,25.60
2018-09-19T08:28:21.591Z,25.90
2018-09-19T08:30:50.212Z,26.10
2018-09-19T08:33:18.729Z,26.30
2018-09-19T08:35:51.185Z,26.40
2018-09-19T08:44:54.383Z,26.50
2018-09-19T08:47:22.940Z,26.30
2018-09-19T08:49:51.449Z,26.40
2018-09-19T08:52:19.961Z,26.50
2018-09-19T09:04:14.809Z,26.60
2018-09-19T09:06:43.491Z,26.90
2018-09-19T09:11:40.693Z,26.90
2018-09-19T09:14:09.304Z,26.90
2018-09-19T09:16:37.884Z,26.90
2018-09-19T09:19:07.419Z,27.10
2018-09-19T09:21:35.935Z,27.00
2018-09-19T09:24:04.437Z,27.20
2018-09-19T09:26:32.994Z,27.40
2018-09-19T09:31:29.697Z,27.40
2018-09-19T09:33:58.205Z,27.40
2018-09-19T09:36:26.931Z,27.60
2018-09-19T09:38:55.481Z,27.70
2018-09-19T09:41:24.060Z,27.70
2018-09-19T09:46:24.191Z,28.10
2018-09-19T09:48:52.821Z,28.20
2018-09-19T09:51:21.393Z,28.30
2018-09-19T09:53:49.915Z,28.30
2018-09-19T09:56:19.618Z,28.40
2018-09-19T09:58:48.097Z,28.50
2018-09-19T10:01:16.741Z,28.70
2018-09-19T10:03:45.293Z,28.70
2018-09-19T10:06:14.026Z,28.80
2018-09-19T10:08:42.610Z,28.70
2018-09-19T10:11:11.211Z,28.80
2018-09-19T10:13:39.798Z,28.90
2018-09-19T10:16:08.671Z,28.90
2018-09-19T10:18:37.268Z,29.20
2018-09-19T10:21:05.846Z,29.20
2018-09-19T10:23:34.341Z,29.20
2018-09-19T10:26:04.082Z,29.20
2018-09-19T10:31:01.946Z,29.20
2018-09-19T10:33:30.510Z,29.20
2018-09-19T10:35:59.238Z,29.20
2018-09-19T10:41:14.516Z,29.30
2018-09-19T10:46:12.268Z,29.30
2018-09-19T10:51:09.747Z,29.20
2018-09-19T10:53:38.467Z,29.20
2018-09-19T10:56:07.742Z,29.20
2018-09-19T10:58:36.957Z,29.20
2018-09-19T11:01:05.996Z,29.20
2018-09-19T11:03:34.946Z,29.10
2018-09-19T11:06:03.536Z,29.20
2018-09-19T11:08:32.024Z,29.10
2018-09-19T11:11:00.786Z,29.20
2018-09-19T11:13:32.653Z,29.40
2018-09-19T11:18:29.593Z,29.60
2018-09-19T11:20:58.598Z,29.50
2018-09-19T11:23:27.180Z,29.50
2018-09-19T11:25:56.193Z,29.40
2018-09-19T11:28:24.772Z,29.50
2018-09-19T11:33:22.135Z,29.70
2018-09-19T11:35:50.688Z,29.70
2018-09-19T11:38:19.265Z,29.80
2018-09-19T11:40:47.938Z,29.90
2018-09-19T11:43:16.522Z,29.90
2018-09-19T11:45:45.052Z,30.00
2018-09-19T11:48:13.688Z,30.10
2018-09-19T11:50:42.360Z,30.10
2018-09-19T11:53:17.281Z,30.10
2018-09-19T11:55:46.084Z,30.20
2018-09-19T11:58:14.718Z,30.30
2018-09-19T12:00:43.304Z,30.20
2018-09-19T12:03:11.936Z,30.20
2018-09-19T12:05:40.485Z,30.30
2018-09-19T12:08:09.049Z,30.40
2018-09-19T12:15:34.436Z,30.50
2018-09-19T12:18:03.463Z,30.50
2018-09-19T12:20:32.821Z,30.50
2018-09-19T12:23:02.030Z,30.50
2018-09-19T12:25:31.389Z,30.50
2018-09-19T12:28:00.538Z,30.50
2018-09-19T12:32:57.748Z,30.60
2018-09-19T12:35:26.733Z,30.50
2018-09-19T12:37:55.696Z,30.40
2018-09-19T12:40:24.861Z,30.50
2018-09-19T12:42:53.787Z,30.60
2018-09-19T12:45:22.476Z,30.60
2018-09-19T12:47:51.097Z,30.60
2018-09-19T12:50:19.888Z,30.80
2018-09-19T12:52:48.432Z,31.00
2018-09-19T12:55:16.902Z,31.00
2018-09-19T12:57:45.527Z,30.80
2018-09-19T13:00:14.105Z,30.70
2018-09-19T13:05:10.887Z,30.80
2018-09-19T13:07:39.487Z,30.80
2018-09-19T13:10:08.128Z,30.90
2018-09-19T13:12:36.812Z,31.00
2018-09-19T13:15:05.352Z,31.00
2018-09-19T13:17:34.056Z,30.90
2018-09-19T13:20:03.784Z,30.90
2018-09-19T13:25:00.544Z,30.90
2018-09-19T13:27:29.098Z,30.90
2018-09-19T13:29:58.063Z,30.90
2018-09-19T13:32:26.601Z,30.90
2018-09-19T13:39:51.624Z,30.70
2018-09-19T13:47:16.767Z,31.20
2018-09-19T13:49:54.273Z,31.20
2018-09-19T13:52:22.837Z,31.20
2018-09-19T13:54:51.420Z,31.30
2018-09-19T13:57:19.902Z,31.30
2018-09-19T14:02:16.623Z,31.20
2018-09-19T14:04:45.256Z,31.30
2018-09-19T14:07:13.794Z,31.30
2018-09-19T14:09:42.361Z,31.30
2018-09-19T14:12:10.929Z,31.30
2018-09-19T14:14:39.544Z,31.20
2018-09-19T14:17:08.067Z,31.20
2018-09-19T14:19:36.636Z,31.20
2018-09-19T14:22:05.221Z,31.20
2018-09-19T14:31:58.463Z,31.30
2018-09-19T14:34:28.034Z,31.30
2018-09-19T14:36:56.537Z,31.30
2018-09-19T14:39:25.134Z,31.30
2018-09-19T14:41:53.677Z,31.30
2018-09-19T14:44:22.280Z,31.30
2018-09-19T14:46:50.857Z,31.30
2018-09-19T14:49:19.395Z,31.30
2018-09-19T14:51:47.904Z,31.30
2018-09-19T14:54:16.485Z,31.30
2018-09-19T14:59:16.937Z,31.30
2018-09-19T15:01:45.512Z,31.30
2018-09-19T15:04:14.007Z,31.30
2018-09-19T15:06:42.589Z,31.30
2018-09-19T15:09:11.821Z,31.30
2018-09-19T15:11:40.368Z,31.30
2018-09-19T15:14:10.842Z,31.30
2018-09-19T15:16:39.407Z,31.30
2018-09-19T15:19:08.039Z,31.30
2018-09-19T15:24:04.849Z,31.30
2018-09-19T15:26:33.417Z,31.20
2018-09-19T15:29:01.992Z,31.30
2018-09-19T15:31:30.506Z,31.30
2018-09-19T15:33:59.095Z,31.20
2018-09-19T15:36:27.623Z,31.20
2018-09-19T15:38:56.211Z,31.20
2018-09-19T15:41:24.693Z,31.20
2018-09-19T15:43:53.264Z,31.20
2018-09-19T15:48:49.911Z,31.20
2018-09-19T15:53:46.684Z,31.10
2018-09-19T15:56:15.239Z,31.20
2018-09-19T16:01:11.982Z,31.10
2018-09-19T16:03:40.553Z,31.10
2018-09-19T16:06:09.862Z,31.10
2018-09-19T16:08:38.417Z,31.00
2018-09-19T16:11:07.046Z,31.00
2018-09-19T16:13:35.606Z,30.90
2018-09-19T16:16:04.228Z,30.90
2018-09-19T16:18:32.770Z,30.90
2018-09-19T16:21:01.344Z,30.90
2018-09-19T16:23:30.147Z,30.90
2018-09-19T16:25:58.695Z,30.80
2018-09-19T16:28:27.248Z,30.80
2018-09-19T16:30:55.779Z,30.80
2018-09-19T16:33:24.309Z,30.70
2018-09-19T16:35:52.825Z,30.60
2018-09-19T16:38:21.446Z,30.50
2018-09-19T16:40:50.071Z,30.40
2018-09-19T16:45:48.019Z,30.30
2018-09-19T16:48:16.564Z,30.20
2018-09-19T16:50:46.102Z,30.10
2018-09-19T16:53:14.924Z,30.10
2018-09-19T16:58:11.756Z,30.00
2018-09-19T17:03:09.523Z,29.90
2018-09-19T17:05:38.585Z,29.80
2018-09-19T17:08:07.940Z,29.80
2018-09-19T17:10:37.598Z,29.70
2018-09-19T17:13:06.907Z,29.70
2018-09-19T17:15:36.381Z,29.60
2018-09-19T17:18:05.458Z,29.60
2018-09-19T17:20:34.118Z,29.50
2018-09-19T17:23:03.804Z,29.50
2018-09-19T17:25:33.265Z,29.40
2018-09-19T17:28:02.142Z,29.40
2018-09-19T17:30:30.888Z,29.30
2018-09-19T17:32:59.436Z,29.30
2018-09-19T17:35:28.033Z,29.20
2018-09-19T17:37:56.684Z,29.20
2018-09-19T17:40:25.787Z,29.20
2018-09-19T17:42:54.388Z,29.10
2018-09-19T17:45:22.939Z,29.10
2018-09-19T17:47:51.995Z,29.00
2018-09-19T17:50:20.633Z,29.00
2018-09-19T17:55:19.184Z,28.90
2018-09-19T17:57:47.717Z,28.90
2018-09-19T18:00:16.414Z,28.80
2018-09-19T18:02:44.954Z,28.80
2018-09-19T18:05:13.817Z,28.80
2018-09-19T18:07:42.360Z,28.70
2018-09-19T18:10:11.013Z,28.70
2018-09-19T18:12:39.714Z,28.70
2018-09-19T18:15:22.672Z,28.70
2018-09-19T18:17:51.974Z,28.70
2018-09-19T18:20:20.966Z,28.60
2018-09-19T18:22:50.504Z,28.60
2018-09-19T18:26:44.414Z,28.60
2018-09-19T18:29:14.104Z,28.50
2018-09-19T18:31:42.994Z,28.40
2018-09-19T18:36:41.121Z,28.30
2018-09-19T18:39:09.754Z,28.30
2018-09-19T18:41:38.717Z,28.20
2018-09-19T18:44:07.330Z,28.20
2018-09-19T18:46:36.050Z,28.20
2018-09-19T18:49:12.294Z,28.20
2018-09-19T18:51:42.534Z,28.20
2018-09-19T18:54:11.154Z,28.20
2018-09-19T18:56:40.339Z,28.20
2018-09-19T18:59:09.271Z,28.20
2018-09-19T19:01:38.418Z,28.10
2018-09-19T19:04:12.490Z,28.10
2018-09-19T19:06:41.748Z,28.10
2018-09-19T19:09:11.680Z,28.00
2018-09-19T19:11:41.971Z,28.00
2018-09-19T19:14:13.456Z,27.90
2018-09-19T19:16:47.533Z,27.90
2018-09-19T19:19:18.529Z,27.90
2018-09-19T19:24:16.397Z,27.80
2018-09-19T19:26:45.269Z,27.70
2018-09-19T19:29:14.954Z,27.70
2018-09-19T19:31:43.715Z,27.60
2018-09-19T19:34:13.102Z,27.60
2018-09-19T19:36:43.016Z,27.60
2018-09-19T19:39:13.151Z,27.60
2018-09-19T19:41:41.828Z,27.60
2018-09-19T19:44:10.640Z,27.50
2018-09-19T19:46:59.000Z,27.40
2018-09-19T19:49:32.885Z,27.40
2018-09-19T19:52:01.568Z,27.30
2018-09-19T19:54:30.213Z,27.30
2018-09-19T19:56:58.779Z,27.30
2018-09-19T19:59:27.580Z,27.30
2018-09-19T20:01:56.222Z,27.30
2018-09-19T20:04:24.814Z,27.20
2018-09-19T20:09:21.777Z,27.20
2018-09-19T20:11:50.384Z,27.10
2018-09-19T20:14:18.997Z,27.10
2018-09-19T20:16:47.546Z,27.10
2018-09-19T20:19:16.024Z,27.00
2018-09-19T20:21:44.488Z,27.00
2018-09-19T20:24:13.265Z,27.00
2018-09-19T20:26:41.927Z,27.00
2018-09-19T20:31:38.683Z,27.00
2018-09-19T20:34:08.265Z,27.00
2018-09-19T20:36:36.853Z,26.90
2018-09-19T20:39:07.515Z,26.90
2018-09-19T20:41:35.989Z,26.90
2018-09-19T20:44:04.438Z,26.90
2018-09-19T20:46:33.034Z,26.90
2018-09-19T20:49:01.504Z,26.80
2018-09-19T20:53:58.192Z,26.80
2018-09-19T20:56:27.064Z,26.80
2018-09-19T20:58:55.539Z,26.70
2018-09-19T21:01:24.060Z,26.70
2018-09-19T21:03:52.746Z,26.60
2018-09-19T21:06:21.350Z,26.60
2018-09-19T21:08:49.990Z,26.60
2018-09-19T21:11:18.561Z,26.50
2018-09-19T21:13:46.979Z,26.50
2018-09-19T21:16:17.189Z,26.50
2018-09-19T21:18:45.970Z,26.40
2018-09-19T21:21:14.676Z,26.50
2018-09-19T21:23:43.225Z,26.40
2018-09-19T21:26:11.805Z,26.40
2018-09-19T21:28:40.339Z,26.40
2018-09-19T21:31:08.917Z,26.40
2018-09-19T21:33:37.443Z,26.30
2018-09-19T21:36:06.272Z,26.30
2018-09-19T21:38:35.138Z,26.30
2018-09-19T21:41:03.699Z,26.30
2018-09-19T21:46:00.368Z,26.20
2018-09-19T21:48:28.933Z,26.20
2018-09-19T21:50:57.521Z,26.20
2018-09-19T21:55:55.391Z,26.20
2018-09-19T21:58:24.027Z,26.20
2018-09-19T22:00:57.997Z,26.20
2018-09-19T22:06:26.991Z,26.10
2018-09-19T22:08:55.591Z,26.00
2018-09-19T22:11:24.306Z,26.00
2018-09-19T22:13:52.888Z,26.10
2018-09-19T22:16:21.396Z,26.00
2018-09-19T22:18:50.021Z,26.10
2018-09-19T22:21:18.596Z,26.00
2018-09-19T22:23:47.139Z,26.00
2018-09-19T22:26:15.689Z,26.00
2018-09-19T22:28:44.208Z,26.00
2018-09-19T22:31:12.723Z,25.90
2018-09-19T22:33:41.240Z,25.90
2018-09-19T22:36:09.784Z,25.90
2018-09-19T22:41:06.436Z,25.80
2018-09-19T22:43:34.922Z,25.80
2018-09-19T22:46:03.864Z,25.80
2018-09-19T22:48:32.366Z,25.80
2018-09-19T22:51:01.050Z,25.80
2018-09-19T22:53:30.020Z,25.80
2018-09-19T22:55:58.565Z,25.70
2018-09-19T22:58:27.087Z,25.70
2018-09-19T23:00:55.707Z,25.70
2018-09-19T23:03:24.274Z,25.70
2018-09-19T23:05:53.908Z,25.60
2018-09-19T23:08:22.436Z,25.70
2018-09-19T23:10:50.964Z,25.60
2018-09-19T23:15:47.676Z,25.50
2018-09-19T23:18:16.309Z,25.40
2018-09-19T23:20:44.925Z,25.40
2018-09-19T23:23:13.684Z,25.40
2018-09-19T23:25:42.293Z,25.30
2018-09-19T23:28:10.980Z,25.20
2018-09-19T23:30:39.635Z,25.20
2018-09-19T23:33:08.880Z,25.10
2018-09-19T23:35:37.465Z,25.00
2018-09-19T23:38:06.095Z,25.00
2018-09-19T23:40:36.126Z,25.00
2018-09-19T23:43:04.691Z,25.00
2018-09-19T23:45:34.774Z,25.00
2018-09-19T23:48:03.295Z,25.00
2018-09-19T23:50:31.896Z,25.00
2018-09-19T23:53:00.435Z,25.00
2018-09-19T23:55:28.994Z,24.90
2018-09-19T23:57:57.593Z,24.90
